createdAt,value
2018-08-22T00:01:21.212Z,3.23
2018-08-22T00:03:26.088Z,6.77
2018-08-22T00:05:31.107Z,10.10
2018-08-22T00:07:35.971Z,4.57
2018-08-22T00:09:40.937Z,2.20
2018-08-22T00:11:45.964Z,4.63
2018-08-22T00:13:50.820Z,5.30
2018-08-22T00:15:55.765Z,2.37
2018-08-22T00:18:00.719Z,6.20
2018-08-22T00:20:05.485Z,5.10
2018-08-22T00:22:10.361Z,6.27
2018-08-22T00:24:15.153Z,4.97
2018-08-22T00:26:20.151Z,5.57
2018-08-22T00:28:25.111Z,4.93
2018-08-22T00:30:30.117Z,5.73
2018-08-22T00:32:34.913Z,2.80
2018-08-22T00:34:39.697Z,4.07
2018-08-22T00:36:44.696Z,3.03
2018-08-22T00:38:49.604Z,6.23
2018-08-22T00:40:54.549Z,3.90
2018-08-22T00:42:59.685Z,2.20
2018-08-22T00:45:04.963Z,2.50
2018-08-22T00:47:10.114Z,7.37
2018-08-22T00:49:15.253Z,2.67
2018-08-22T00:51:20.372Z,4.00
2018-08-22T00:53:25.317Z,3.67
2018-08-22T00:55:30.104Z,4.93
2018-08-22T00:57:35.084Z,2.60
2018-08-22T00:59:40.421Z,2.90
2018-08-22T01:01:45.405Z,6.50
2018-08-22T01:03:50.518Z,2.90
2018-08-22T01:05:55.641Z,2.77
2018-08-22T01:08:00.543Z,3.50
2018-08-22T01:10:05.993Z,2.17
2018-08-22T01:12:11.016Z,1.83
2018-08-22T01:14:16.110Z,2.33
2018-08-22T01:16:21.193Z,3.90
2018-08-22T01:18:26.193Z,3.43
2018-08-22T01:20:31.202Z,4.23
2018-08-22T01:22:36.345Z,2.27
2018-08-22T01:24:41.160Z,2.73
2018-08-22T01:26:46.552Z,4.73
2018-08-22T01:28:51.512Z,4.80
2018-08-22T01:30:56.829Z,6.50
2018-08-22T01:33:01.905Z,3.97
2018-08-22T01:35:07.095Z,5.93
2018-08-22T01:37:12.164Z,2.80
2018-08-22T01:39:17.034Z,2.60
2018-08-22T01:41:22.288Z,5.93
2018-08-22T01:43:33.618Z,2.23
2018-08-22T01:45:38.751Z,3.23
2018-08-22T01:47:43.766Z,4.13
2018-08-22T01:49:49.131Z,3.90
2018-08-22T01:51:54.133Z,2.17
2018-08-22T01:53:59.104Z,4.83
2018-08-22T01:56:04.527Z,7.80
2018-08-22T01:58:10.273Z,3.00
2018-08-22T02:00:15.415Z,2.70
2018-08-22T02:02:20.257Z,2.80
2018-08-22T02:04:25.346Z,3.47
2018-08-22T02:06:30.201Z,4.03
2018-08-22T02:08:35.295Z,3.67
2018-08-22T02:10:40.703Z,3.40
2018-08-22T02:12:45.511Z,3.93
2018-08-22T02:14:50.374Z,2.83
2018-08-22T02:16:55.245Z,4.90
2018-08-22T02:19:00.259Z,7.20
2018-08-22T02:21:05.573Z,2.30
2018-08-22T02:23:11.247Z,3.43
2018-08-22T02:25:16.191Z,2.47
2018-08-22T02:27:20.989Z,3.80
2018-08-22T02:29:25.952Z,2.80
2018-08-22T02:31:31.398Z,3.00
2018-08-22T02:33:36.396Z,4.90
2018-08-22T02:35:41.528Z,3.33
2018-08-22T02:37:46.469Z,3.30
2018-08-22T02:39:51.583Z,7.90
2018-08-22T02:41:56.540Z,2.30
2018-08-22T02:44:01.647Z,2.00
2018-08-22T02:46:07.242Z,7.10
2018-08-22T02:48:12.177Z,2.53
2018-08-22T02:50:17.912Z,2.03
2018-08-22T02:52:23.299Z,2.23
2018-08-22T02:54:28.306Z,2.57
2018-08-22T02:56:33.234Z,2.50
2018-08-22T02:58:38.336Z,2.60
2018-08-22T03:00:43.325Z,1.60
2018-08-22T03:02:48.204Z,3.70
2018-08-22T03:04:53.369Z,2.60
2018-08-22T03:06:58.233Z,3.80
2018-08-22T03:09:03.393Z,1.90
2018-08-22T03:11:08.227Z,3.73
2018-08-22T03:13:13.218Z,3.83
2018-08-22T03:15:18.054Z,1.70
2018-08-22T03:17:22.946Z,2.03
2018-08-22T03:19:28.400Z,2.90
2018-08-22T03:21:34.880Z,1.80
2018-08-22T03:23:39.687Z,5.00
2018-08-22T03:25:44.838Z,3.37
2018-08-22T03:27:51.923Z,2.30
2018-08-22T03:29:56.946Z,2.40
2018-08-22T03:32:03.912Z,3.73
2018-08-22T03:34:09.745Z,2.50
2018-08-22T03:36:14.877Z,3.43
2018-08-22T03:38:19.849Z,5.37
2018-08-22T03:40:24.909Z,5.23
2018-08-22T03:42:29.880Z,2.00
2018-08-22T03:44:34.851Z,2.70
2018-08-22T03:46:39.877Z,3.67
2018-08-22T03:48:56.792Z,2.53
2018-08-22T03:51:02.052Z,4.23
2018-08-22T03:53:06.989Z,3.50
2018-08-22T03:55:11.937Z,3.57
2018-08-22T03:57:16.737Z,10.13
2018-08-22T03:59:21.502Z,1.80
2018-08-22T04:01:26.693Z,9.30
2018-08-22T04:03:31.664Z,3.33
2018-08-22T04:05:36.809Z,6.00
2018-08-22T04:07:41.706Z,5.80
2018-08-22T04:09:46.769Z,3.87
2018-08-22T04:11:51.842Z,2.70
2018-08-22T04:13:56.665Z,4.90
2018-08-22T04:16:14.405Z,4.63
2018-08-22T04:18:19.287Z,7.20
2018-08-22T04:20:24.382Z,3.13
2018-08-22T04:22:30.942Z,7.90
2018-08-22T04:24:37.722Z,3.67
2018-08-22T04:26:43.755Z,3.43
2018-08-22T04:28:49.790Z,6.50
2018-08-22T04:30:55.315Z,5.47
2018-08-22T04:33:00.619Z,3.60
2018-08-22T04:35:05.900Z,6.67
2018-08-22T04:37:10.872Z,2.77
2018-08-22T04:39:16.069Z,2.50
2018-08-22T04:41:21.366Z,3.07
2018-08-22T04:43:26.436Z,2.33
2018-08-22T04:45:31.301Z,7.17
2018-08-22T04:47:36.470Z,3.83
2018-08-22T04:49:42.167Z,4.50
2018-08-22T04:51:47.773Z,5.20
2018-08-22T04:53:53.053Z,5.70
2018-08-22T04:55:58.724Z,7.97
2018-08-22T04:58:05.073Z,6.40
2018-08-22T05:00:13.261Z,3.00
2018-08-22T05:02:18.830Z,3.37
2018-08-22T05:04:26.130Z,7.50
2018-08-22T05:06:39.076Z,4.47
2018-08-22T05:08:54.103Z,4.53
2018-08-22T05:10:58.987Z,5.90
2018-08-22T05:13:04.081Z,5.20
2018-08-22T05:15:09.459Z,3.70
2018-08-22T05:17:20.033Z,2.97
2018-08-22T05:19:24.827Z,5.70
2018-08-22T05:21:29.637Z,9.53
2018-08-22T05:23:34.749Z,6.60
2018-08-22T05:25:42.486Z,5.00
2018-08-22T05:27:47.556Z,3.30
2018-08-22T05:29:52.844Z,5.07
2018-08-22T05:31:59.048Z,5.77
2018-08-22T05:34:04.228Z,6.80
2018-08-22T05:36:09.294Z,5.03
2018-08-22T05:38:14.486Z,6.93
2018-08-22T05:40:19.480Z,7.90
2018-08-22T05:42:24.631Z,5.63
2018-08-22T05:44:34.789Z,3.33
2018-08-22T05:46:42.382Z,8.13
2018-08-22T05:49:04.736Z,5.93
2018-08-22T05:51:10.348Z,9.47
2018-08-22T05:53:15.532Z,5.33
2018-08-22T05:55:20.595Z,4.53
2018-08-22T05:57:25.604Z,8.60
2018-08-22T05:59:30.730Z,4.13
2018-08-22T06:01:35.616Z,7.40
2018-08-22T06:03:40.603Z,7.00
2018-08-22T06:05:45.980Z,6.00
2018-08-22T06:07:51.311Z,7.70
2018-08-22T06:09:56.320Z,4.40
2018-08-22T06:12:01.145Z,5.10
2018-08-22T06:14:05.967Z,11.73
2018-08-22T06:16:11.115Z,8.30
2018-08-22T06:18:16.015Z,8.73
2018-08-22T06:20:21.051Z,7.60
2018-08-22T06:22:25.857Z,5.90
2018-08-22T06:24:30.817Z,7.80
2018-08-22T06:26:36.213Z,9.00
2018-08-22T06:28:41.285Z,10.87
2018-08-22T06:30:46.924Z,7.67
2018-08-22T06:32:52.036Z,4.57
2018-08-22T06:34:57.207Z,7.53
2018-08-22T06:37:02.195Z,4.90
2018-08-22T06:39:11.034Z,5.87
2018-08-22T06:41:16.958Z,6.73
2018-08-22T06:43:21.991Z,3.43
2018-08-22T06:45:27.146Z,11.70
2018-08-22T06:47:32.244Z,8.23
2018-08-22T06:49:37.386Z,7.63
2018-08-22T06:51:42.789Z,4.97
2018-08-22T06:53:49.553Z,7.10
2018-08-22T06:55:54.769Z,4.67
2018-08-22T06:58:00.841Z,4.33
2018-08-22T07:00:07.925Z,14.73
2018-08-22T07:02:13.257Z,6.17
2018-08-22T07:04:18.207Z,5.60
2018-08-22T07:06:23.136Z,8.07
2018-08-22T07:08:29.908Z,6.13
2018-08-22T07:10:36.119Z,6.47
2018-08-22T07:12:42.235Z,5.30
2018-08-22T07:14:48.149Z,8.90
2018-08-22T07:16:53.302Z,15.93
2018-08-22T07:18:58.734Z,8.20
2018-08-22T07:21:04.319Z,3.63
2018-08-22T07:23:09.607Z,9.73
2018-08-22T07:25:15.395Z,12.07
2018-08-22T07:27:22.520Z,6.73
2018-08-22T07:29:27.933Z,6.17
2018-08-22T07:31:33.447Z,11.37
2018-08-22T07:33:38.678Z,12.03
2018-08-22T07:35:45.021Z,24.37
2018-08-22T07:37:50.301Z,6.87
2018-08-22T07:39:55.257Z,7.50
2018-08-22T07:42:00.395Z,11.43
2018-08-22T07:44:05.954Z,4.03
2018-08-22T07:46:11.076Z,5.23
2018-08-22T07:48:16.216Z,4.30
2018-08-22T07:50:21.396Z,5.70
2018-08-22T07:52:26.794Z,5.87
2018-08-22T07:54:50.916Z,10.00
2018-08-22T07:56:56.000Z,10.53
2018-08-22T07:59:20.592Z,5.33
2018-08-22T08:01:25.370Z,4.40
2018-08-22T08:03:30.576Z,5.23
2018-08-22T08:05:35.479Z,5.20
2018-08-22T08:07:40.364Z,6.53
2018-08-22T08:09:45.188Z,8.60
2018-08-22T08:11:50.012Z,9.57
2018-08-22T08:13:54.778Z,8.70
2018-08-22T08:15:59.926Z,10.30
2018-08-22T08:18:04.909Z,7.70
2018-08-22T08:20:09.964Z,6.83
2018-08-22T08:22:14.805Z,11.67
2018-08-22T08:24:19.751Z,8.13
2018-08-22T08:26:25.003Z,8.70
2018-08-22T08:28:30.333Z,6.27
2018-08-22T08:30:35.220Z,8.87
2018-08-22T08:32:40.219Z,5.40
2018-08-22T08:34:45.470Z,14.70
2018-08-22T08:36:50.690Z,7.50
2018-08-22T08:38:55.783Z,9.40
2018-08-22T08:41:00.803Z,9.70
2018-08-22T08:43:05.739Z,7.90
2018-08-22T08:45:11.793Z,8.00
2018-08-22T08:47:16.808Z,8.10
2018-08-22T08:49:21.905Z,13.50
2018-08-22T08:51:27.474Z,9.87
2018-08-22T08:53:32.821Z,14.53
2018-08-22T08:55:38.208Z,14.50
2018-08-22T08:57:43.183Z,9.20
2018-08-22T08:59:48.339Z,16.30
2018-08-22T09:01:53.307Z,11.27
2018-08-22T09:03:59.177Z,12.10
2018-08-22T09:06:04.264Z,15.03
2018-08-22T09:08:09.231Z,14.47
2018-08-22T09:10:14.196Z,18.70
2018-08-22T09:12:19.473Z,13.03
2018-08-22T09:14:24.427Z,11.77
2018-08-22T09:16:29.387Z,8.37
2018-08-22T09:18:34.516Z,11.07
2018-08-22T09:20:40.166Z,8.63
2018-08-22T09:22:45.365Z,12.90
2018-08-22T09:24:50.527Z,13.83
2018-08-22T09:26:55.517Z,15.60
2018-08-22T09:29:00.571Z,12.63
2018-08-22T09:31:05.558Z,9.57
2018-08-22T09:33:10.623Z,11.30
2018-08-22T09:35:16.055Z,11.60
2018-08-22T09:37:21.250Z,11.30
2018-08-22T09:39:41.104Z,14.80
2018-08-22T09:41:46.299Z,16.00
2018-08-22T09:43:51.274Z,23.83
2018-08-22T09:45:56.081Z,9.57
2018-08-22T09:48:01.008Z,12.00
2018-08-22T09:50:06.287Z,15.03
2018-08-22T09:52:11.308Z,11.20
2018-08-22T09:54:16.361Z,10.67
2018-08-22T09:56:21.589Z,12.57
2018-08-22T09:58:26.444Z,11.40
2018-08-22T10:00:36.218Z,16.17
2018-08-22T10:02:41.245Z,21.30
2018-08-22T10:04:46.414Z,24.53
2018-08-22T10:06:51.883Z,14.10
2018-08-22T10:08:58.467Z,12.53
2018-08-22T10:11:03.581Z,15.30
2018-08-22T10:13:08.554Z,42.87
2018-08-22T10:15:13.726Z,16.60
2018-08-22T10:17:19.142Z,11.87
2018-08-22T10:19:23.992Z,11.53
2018-08-22T10:21:29.062Z,16.80
2018-08-22T10:23:34.138Z,13.60
2018-08-22T10:25:39.314Z,17.63
2018-08-22T10:27:44.510Z,16.97
2018-08-22T10:29:49.771Z,19.80
2018-08-22T10:31:54.642Z,14.33
2018-08-22T10:33:59.766Z,19.37
2018-08-22T10:36:05.087Z,21.33
2018-08-22T10:38:09.878Z,18.53
2018-08-22T10:40:14.848Z,12.97
2018-08-22T10:42:20.110Z,15.03
2018-08-22T10:44:25.216Z,17.40
2018-08-22T10:46:30.340Z,14.03
2018-08-22T10:48:40.155Z,15.97
2018-08-22T10:50:45.253Z,13.97
2018-08-22T10:52:50.132Z,18.43
2018-08-22T10:54:55.204Z,11.03
2018-08-22T10:57:00.346Z,31.13
2018-08-22T10:59:05.284Z,19.83
2018-08-22T11:01:10.221Z,18.37
2018-08-22T11:03:15.427Z,19.40
2018-08-22T11:05:20.641Z,13.27
2018-08-22T11:07:25.879Z,15.77
2018-08-22T11:09:31.447Z,22.90
2018-08-22T11:11:36.600Z,21.43
2018-08-22T11:13:42.006Z,24.47
2018-08-22T11:15:47.205Z,18.47
2018-08-22T11:17:52.436Z,23.90
2018-08-22T11:19:57.536Z,31.30
2018-08-22T11:22:19.037Z,25.33
2018-08-22T11:24:40.353Z,18.93
2018-08-22T11:27:01.924Z,28.17
2018-08-22T11:29:23.356Z,26.90
2018-08-22T11:31:44.867Z,18.87
2018-08-22T11:34:06.363Z,15.43
2018-08-22T11:36:09.399Z,16.83
2018-08-22T11:38:14.597Z,15.97
2018-08-22T11:40:19.814Z,15.47
2018-08-22T11:42:24.737Z,15.40
2018-08-22T11:44:30.171Z,13.37
2018-08-22T11:46:35.209Z,15.60
2018-08-22T11:48:40.254Z,25.17
2018-08-22T11:50:45.604Z,15.03
2018-08-22T11:52:50.686Z,23.43
2018-08-22T11:54:56.513Z,16.53
2018-08-22T11:57:02.117Z,14.63
2018-08-22T11:59:07.051Z,23.97
2018-08-22T12:01:12.215Z,18.50
2018-08-22T12:03:17.344Z,11.37
2018-08-22T12:05:22.319Z,18.37
2018-08-22T12:07:28.500Z,18.03
2018-08-22T12:09:33.495Z,19.23
2018-08-22T12:11:38.520Z,20.70
2018-08-22T12:13:43.598Z,16.27
2018-08-22T12:16:05.157Z,13.60
2018-08-22T12:18:10.099Z,17.13
2018-08-22T12:20:14.951Z,14.03
2018-08-22T12:22:20.071Z,17.53
2018-08-22T12:24:25.088Z,13.60
2018-08-22T12:26:30.042Z,16.90
2018-08-22T12:28:36.421Z,22.07
2018-08-22T12:30:41.785Z,19.13
2018-08-22T12:32:46.908Z,14.73
2018-08-22T12:34:52.211Z,17.53
2018-08-22T12:36:57.343Z,12.37
2018-08-22T12:39:02.543Z,29.03
2018-08-22T12:41:08.621Z,15.40
2018-08-22T12:43:13.659Z,17.90
2018-08-22T12:45:18.794Z,14.50
2018-08-22T12:47:23.727Z,18.60
2018-08-22T12:49:28.729Z,15.00
2018-08-22T12:51:34.027Z,13.70
2018-08-22T12:53:39.330Z,18.20
2018-08-22T12:55:44.380Z,12.10
2018-08-22T12:57:49.346Z,11.73
2018-08-22T12:59:54.372Z,10.50
2018-08-22T13:01:59.484Z,22.50
2018-08-22T13:04:04.655Z,11.90
2018-08-22T13:06:09.576Z,11.00
2018-08-22T13:08:14.783Z,11.47
2018-08-22T13:10:20.431Z,12.10
2018-08-22T13:12:25.399Z,11.63
2018-08-22T13:14:30.462Z,15.93
2018-08-22T13:16:35.465Z,16.37
2018-08-22T13:18:40.802Z,13.80
2018-08-22T13:20:45.920Z,15.60
2018-08-22T13:22:50.983Z,13.17
2018-08-22T13:24:56.167Z,11.33
2018-08-22T13:27:01.242Z,10.53
2018-08-22T13:29:06.570Z,16.10
2018-08-22T13:31:11.964Z,13.87
2018-08-22T13:33:16.816Z,22.30
2018-08-22T13:35:22.961Z,11.53
2018-08-22T13:37:29.003Z,14.30
2018-08-22T13:39:34.193Z,12.07
2018-08-22T13:41:40.461Z,11.57
2018-08-22T13:43:45.595Z,9.37
2018-08-22T13:45:50.689Z,13.80
2018-08-22T13:47:55.952Z,14.60
2018-08-22T13:50:00.998Z,12.37
2018-08-22T13:52:06.103Z,13.57
2018-08-22T13:54:11.480Z,15.47
2018-08-22T13:56:17.244Z,11.03
2018-08-22T14:00:37.824Z,8.97
2018-08-22T14:02:42.738Z,9.63
2018-08-22T14:04:47.532Z,9.50
2018-08-22T14:06:52.668Z,13.70
2018-08-22T14:08:57.753Z,15.33
2018-08-22T14:11:02.673Z,13.10
2018-08-22T14:13:08.737Z,13.20
2018-08-22T14:15:13.606Z,10.87
2018-08-22T14:17:18.553Z,8.33
2018-08-22T14:19:23.655Z,11.80
2018-08-22T14:21:28.729Z,11.10
2018-08-22T14:23:33.590Z,20.03
2018-08-22T14:25:38.610Z,9.80
2018-08-22T14:27:43.776Z,18.50
2018-08-22T14:29:48.939Z,14.80
2018-08-22T14:31:53.784Z,14.70
2018-08-22T14:33:58.685Z,10.13
2018-08-22T14:36:03.446Z,14.40
2018-08-22T14:38:08.455Z,12.03
2018-08-22T14:40:13.542Z,14.73
2018-08-22T14:42:18.340Z,12.63
2018-08-22T14:44:23.107Z,11.00
2018-08-22T14:46:28.263Z,20.63
2018-08-22T14:48:33.116Z,14.27
2018-08-22T14:50:38.312Z,18.77
2018-08-22T14:52:43.857Z,15.00
2018-08-22T14:54:48.641Z,20.07
2018-08-22T14:56:53.604Z,17.63
2018-08-22T14:58:58.658Z,14.37
2018-08-22T15:01:03.695Z,18.10
2018-08-22T15:03:08.953Z,17.87
2018-08-22T15:05:14.919Z,16.40
2018-08-22T15:07:19.821Z,13.67
2018-08-22T15:09:25.017Z,17.07
2018-08-22T15:11:30.434Z,15.77
2018-08-22T15:13:36.859Z,17.17
2018-08-22T15:15:42.908Z,18.37
2018-08-22T15:17:48.001Z,16.10
2018-08-22T15:19:52.839Z,22.33
2018-08-22T15:21:58.002Z,15.93
2018-08-22T15:24:03.255Z,15.33
2018-08-22T15:26:08.496Z,12.93
2018-08-22T15:28:13.388Z,15.80
2018-08-22T15:30:18.617Z,19.47
2018-08-22T15:32:24.894Z,18.83
2018-08-22T15:34:47.031Z,14.00
2018-08-22T15:36:52.323Z,15.33
2018-08-22T15:38:57.640Z,18.70
2018-08-22T15:41:02.878Z,20.13
2018-08-22T15:43:08.365Z,14.20
2018-08-22T15:45:13.550Z,29.80
2018-08-22T15:47:19.175Z,14.00
2018-08-22T15:49:24.321Z,11.13
2018-08-22T15:51:29.612Z,11.97
2018-08-22T15:53:34.902Z,15.43
2018-08-22T15:55:40.217Z,17.70
2018-08-22T15:58:06.329Z,22.20
2018-08-22T16:00:11.387Z,15.67
2018-08-22T16:02:16.420Z,16.27
2018-08-22T16:04:21.343Z,12.33
2018-08-22T16:06:26.353Z,16.53
2018-08-22T16:08:31.589Z,12.53
2018-08-22T16:10:39.307Z,23.53
2018-08-22T16:12:44.506Z,16.40
2018-08-22T16:14:49.647Z,17.97
2018-08-22T16:16:54.935Z,15.07
2018-08-22T16:19:00.068Z,17.87
2018-08-22T16:21:07.702Z,17.13
2018-08-22T16:23:12.692Z,14.40
2018-08-22T16:25:17.759Z,14.10
2018-08-22T16:27:22.851Z,12.27
2018-08-22T16:29:28.034Z,17.20
2018-08-22T16:31:51.005Z,20.37
2018-08-22T16:33:56.144Z,14.70
2018-08-22T16:36:01.040Z,13.33
2018-08-22T16:38:10.354Z,20.00
2018-08-22T16:40:15.758Z,15.37
2018-08-22T16:42:24.942Z,23.57
2018-08-22T16:44:30.079Z,11.43
2018-08-22T16:46:35.133Z,16.03
2018-08-22T16:48:41.868Z,16.50
2018-08-22T16:50:47.208Z,14.77
2018-08-22T16:52:52.233Z,14.20
2018-08-22T16:55:15.123Z,16.80
2018-08-22T16:57:20.748Z,15.10
2018-08-22T16:59:26.043Z,15.63
2018-08-22T17:01:31.766Z,14.93
2018-08-22T17:03:36.945Z,11.20
2018-08-22T17:05:42.202Z,14.40
2018-08-22T17:07:47.294Z,13.30
2018-08-22T17:09:52.430Z,15.80
2018-08-22T17:11:57.497Z,13.53
2018-08-22T17:14:02.490Z,11.27
2018-08-22T17:16:07.638Z,16.60
2018-08-22T17:18:13.043Z,18.80
2018-08-22T17:20:18.148Z,12.83
2018-08-22T17:22:23.015Z,16.37
2018-08-22T17:24:28.223Z,17.00
2018-08-22T17:26:33.139Z,15.30
2018-08-22T17:28:38.875Z,13.40
2018-08-22T17:30:44.322Z,15.23
2018-08-22T17:32:49.249Z,10.90
2018-08-22T17:34:57.953Z,13.50
2018-08-22T17:37:08.589Z,15.20
2018-08-22T17:39:14.154Z,13.03
2018-08-22T17:41:21.805Z,16.70
2018-08-22T17:43:26.942Z,15.03
2018-08-22T17:45:39.338Z,15.97
2018-08-22T17:47:45.844Z,14.57
2018-08-22T17:50:04.859Z,23.43
2018-08-22T17:52:11.049Z,12.27
2018-08-22T17:54:16.548Z,12.00
2018-08-22T17:56:24.375Z,15.20
2018-08-22T17:58:29.585Z,12.97
2018-08-22T18:00:37.119Z,13.00
2018-08-22T18:02:41.927Z,11.27
2018-08-22T18:04:54.077Z,11.47
2018-08-22T18:06:59.945Z,19.10
2018-08-22T18:09:05.399Z,11.73
2018-08-22T18:11:13.046Z,16.60
2018-08-22T18:13:18.411Z,14.53
2018-08-22T18:15:23.712Z,14.23
2018-08-22T18:17:28.789Z,16.87
2018-08-22T18:19:34.493Z,14.70
2018-08-22T18:21:44.604Z,14.90
2018-08-22T18:23:55.605Z,14.47
2018-08-22T18:26:01.973Z,12.13
2018-08-22T18:28:07.817Z,16.80
2018-08-22T18:30:13.338Z,17.70
2018-08-22T18:32:19.028Z,14.93
2018-08-22T18:34:24.454Z,11.70
2018-08-22T18:36:30.946Z,15.03
2018-08-22T18:38:36.707Z,15.50
2018-08-22T18:40:43.475Z,13.20
2018-08-22T18:42:57.581Z,11.10
2018-08-22T18:45:04.958Z,12.27
2018-08-22T18:47:10.705Z,12.53
2018-08-22T18:49:19.691Z,15.13
2018-08-22T18:51:25.253Z,10.97
2018-08-22T18:53:31.265Z,14.37
2018-08-22T18:55:39.689Z,14.63
2018-08-22T18:57:48.942Z,17.50
2018-08-22T18:59:54.737Z,16.27
2018-08-22T19:02:03.218Z,15.70
2018-08-22T19:04:08.488Z,16.03
2018-08-22T19:06:15.303Z,14.63
2018-08-22T19:08:24.806Z,26.27
2018-08-22T19:10:53.441Z,19.17
2018-08-22T19:13:24.065Z,16.10
2018-08-22T19:15:49.628Z,15.93
2018-08-22T19:18:17.045Z,15.53
2018-08-22T19:20:40.155Z,13.53
2018-08-22T19:22:55.347Z,18.27
2018-08-22T19:25:15.846Z,20.67
2018-08-22T19:27:29.906Z,21.67
2018-08-22T19:29:48.009Z,22.70
2018-08-22T19:32:27.435Z,22.07
2018-08-22T19:35:18.541Z,22.40
2018-08-22T19:37:49.129Z,28.43
2018-08-22T19:40:21.282Z,28.57
2018-08-22T19:42:42.024Z,29.60
2018-08-22T19:45:27.196Z,27.10
2018-08-22T19:47:57.192Z,29.63
2018-08-22T19:50:28.978Z,27.50
2018-08-22T19:52:55.467Z,24.90
2018-08-22T19:55:29.819Z,27.70
2018-08-22T19:58:14.093Z,27.77
2018-08-22T20:03:36.900Z,24.93
2018-08-22T20:06:13.936Z,25.87
2018-08-22T20:08:39.940Z,24.97
2018-08-22T20:11:01.639Z,22.07
2018-08-22T20:14:41.695Z,26.17
2018-08-22T20:17:20.668Z,25.90
2018-08-22T20:19:29.226Z,30.63
2018-08-22T20:21:37.157Z,26.60
2018-08-22T20:23:42.346Z,29.73
2018-08-22T20:25:49.032Z,29.77
2018-08-22T20:27:54.762Z,33.83
2018-08-22T20:33:28.878Z,30.60
2018-08-22T20:35:47.522Z,36.60
2018-08-22T20:38:28.830Z,36.73
2018-08-22T20:41:07.484Z,30.87
2018-08-22T20:43:42.842Z,31.80
2018-08-22T20:46:08.821Z,33.80
2018-08-22T20:48:16.427Z,28.90
2018-08-22T20:50:37.761Z,30.70
2018-08-22T20:53:05.175Z,30.33
2018-08-22T20:55:33.324Z,29.07
2018-08-22T20:57:38.808Z,30.40
2018-08-22T20:59:43.903Z,29.10
2018-08-22T21:02:19.656Z,25.93
2018-08-22T21:04:55.605Z,32.30
2018-08-22T21:07:51.388Z,25.00
2018-08-22T21:10:32.840Z,31.20
2018-08-22T21:13:07.967Z,29.93
2018-08-22T21:15:50.423Z,24.77
2018-08-22T21:18:07.516Z,27.50
2018-08-22T21:20:30.894Z,25.33
2018-08-22T21:22:36.449Z,33.80
2018-08-22T21:24:57.612Z,25.90
2018-08-22T21:27:12.881Z,27.20
2018-08-22T21:29:18.086Z,30.20
2018-08-22T21:31:23.178Z,32.00
2018-08-22T21:33:29.180Z,22.80
2018-08-22T21:35:34.481Z,30.07
2018-08-22T21:37:39.638Z,26.63
2018-08-22T21:39:45.857Z,35.03
2018-08-22T21:41:54.925Z,27.63
2018-08-22T21:44:00.059Z,32.33
2018-08-22T21:46:06.525Z,25.43
2018-08-22T21:48:22.025Z,36.90
2018-08-22T21:50:27.272Z,28.50
2018-08-22T21:52:55.071Z,28.67
2018-08-22T21:55:00.807Z,32.37
2018-08-22T21:57:06.638Z,30.27
2018-08-22T21:59:12.483Z,32.60
2018-08-22T22:01:18.310Z,34.23
2018-08-22T22:03:28.819Z,33.30
2018-08-22T22:05:50.579Z,31.83
2018-08-22T22:10:11.652Z,35.50
2018-08-22T22:12:21.663Z,35.97
2018-08-22T22:14:27.661Z,28.07
2018-08-22T22:16:33.267Z,29.40
2018-08-22T22:18:38.661Z,28.17
2018-08-22T22:20:51.612Z,34.13
2018-08-22T22:22:57.948Z,34.37
2018-08-22T22:25:03.283Z,32.53
2018-08-22T22:27:10.014Z,32.50
2018-08-22T22:29:15.052Z,36.00
2018-08-22T22:31:19.933Z,31.43
2018-08-22T22:33:24.923Z,27.47
2018-08-22T22:35:34.767Z,27.90
2018-08-22T22:37:39.981Z,36.50
2018-08-22T22:39:46.433Z,30.33
2018-08-22T22:41:51.646Z,33.83
2018-08-22T22:43:56.885Z,30.37
2018-08-22T22:46:01.830Z,35.87
2018-08-22T22:48:07.078Z,32.90
2018-08-22T22:50:12.173Z,29.10
2018-08-22T22:52:27.148Z,38.13
2018-08-22T22:54:36.624Z,29.80
2018-08-22T22:56:41.931Z,33.77
2018-08-22T22:58:48.229Z,44.07
2018-08-22T23:00:53.817Z,32.67
2018-08-22T23:03:04.497Z,36.20
2018-08-22T23:05:10.167Z,34.47
2018-08-22T23:07:25.166Z,35.23
2018-08-22T23:09:34.832Z,36.00
2018-08-22T23:11:39.953Z,33.53
2018-08-22T23:13:45.223Z,34.90
2018-08-22T23:15:50.314Z,35.30
2018-08-22T23:17:58.203Z,38.00
2018-08-22T23:20:19.356Z,38.57
2018-08-22T23:22:24.374Z,40.50
2018-08-22T23:24:30.165Z,32.10
2018-08-22T23:26:35.531Z,36.07
2018-08-22T23:28:40.639Z,30.90
2018-08-22T23:30:48.487Z,44.87
2018-08-22T23:33:02.184Z,36.77
2018-08-22T23:35:24.681Z,31.07
2018-08-22T23:37:29.838Z,35.07
2018-08-22T23:39:34.987Z,35.50
2018-08-22T23:41:39.929Z,40.67
2018-08-22T23:43:50.164Z,40.40
2018-08-22T23:45:57.230Z,43.43
2018-08-22T23:48:02.142Z,39.60
2018-08-22T23:50:07.272Z,38.20
2018-08-22T23:52:12.219Z,44.10
2018-08-22T23:54:17.255Z,35.80
2018-08-22T23:56:24.038Z,34.67
2018-08-22T23:58:28.966Z,45.13
